sensor_id;sensor_type;location;lat;lon;timestamp;P1;durP1;ratioP1;P2;durP2;ratioP2
8050;SDS011;4068;42.158;24.732;2023-11-19T00:00:34;2.60;;;2.40;;
8050;SDS011;4068;42.158;24.732;2023-11-19T00:02:59;2.70;;;2.50;;
8050;SDS011;4068;42.158;24.732;2023-11-19T00:05:25;3.57;;;2.50;;
8050;SDS011;4068;42.158;24.732;2023-11-19T00:07:52;2.60;;;2.40;;
8050;SDS011;4068;42.158;24.732;2023-11-19T00:10:18;4.57;;;2.60;;
8050;SDS011;4068;42.158;24.732;2023-11-19T00:12:47;2.80;;;2.60;;
8050;SDS011;4068;42.158;24.732;2023-11-19T00:15:14;8.13;;;2.67;;
8050;SDS011;4068;42.158;24.732;2023-11-19T00:17:41;2.70;;;2.50;;
8050;SDS011;4068;42.158;24.732;2023-11-19T00:20:11;2.50;;;2.30;;
8050;SDS011;4068;42.158;24.732;2023-11-19T00:22:37;2.30;;;2.20;;
8050;SDS011;4068;42.158;24.732;2023-11-19T00:25:02;4.80;;;2.47;;
8050;SDS011;4068;42.158;24.732;2023-11-19T00:27:28;3.13;;;2.40;;
8050;SDS011;4068;42.158;24.732;2023-11-19T00:29:54;2.60;;;2.40;;
8050;SDS011;4068;42.158;24.732;2023-11-19T00:32:19;3.07;;;2.50;;
8050;SDS011;4068;42.158;24.732;2023-11-19T00:34:45;2.53;;;2.37;;
8050;SDS011;4068;42.158;24.732;2023-11-19T00:37:13;2.23;;;2.10;;
8050;SDS011;4068;42.158;24.732;2023-11-19T00:39:40;2.83;;;2.58;;
8050;SDS011;4068;42.158;24.732;2023-11-19T00:42:06;2.43;;;2.30;;
8050;SDS011;4068;42.158;24.732;2023-11-19T00:44:31;2.57;;;2.37;;
8050;SDS011;4068;42.158;24.732;2023-11-19T00:46:56;2.50;;;2.30;;
8050;SDS011;4068;42.158;24.732;2023-11-19T00:49:22;2.77;;;2.53;;
8050;SDS011;4068;42.158;24.732;2023-11-19T00:51:47;2.83;;;2.63;;
8050;SDS011;4068;42.158;24.732;2023-11-19T00:54:14;2.57;;;2.37;;
8050;SDS011;4068;42.158;24.732;2023-11-19T00:56:39;2.90;;;2.70;;
8050;SDS011;4068;42.158;24.732;2023-11-19T00:59:05;3.10;;;2.40;;
8050;SDS011;4068;42.158;24.732;2023-11-19T01:01:30;2.43;;;2.33;;
8050;SDS011;4068;42.158;24.732;2023-11-19T01:03:56;2.70;;;2.50;;
8050;SDS011;4068;42.158;24.732;2023-11-19T01:06:31;3.33;;;2.43;;
8050;SDS011;4068;42.158;24.732;2023-11-19T01:08:57;2.70;;;2.50;;
8050;SDS011;4068;42.158;24.732;2023-11-19T01:11:23;2.60;;;2.40;;
8050;SDS011;4068;42.158;24.732;2023-11-19T01:13:50;2.40;;;2.27;;
8050;SDS011;4068;42.158;24.732;2023-11-19T01:16:16;2.67;;;2.47;;
8050;SDS011;4068;42.158;24.732;2023-11-19T01:18:42;2.70;;;2.60;;
8050;SDS011;4068;42.158;24.732;2023-11-19T01:21:08;2.63;;;2.43;;
8050;SDS011;4068;42.158;24.732;2023-11-19T01:23:33;2.60;;;2.40;;
8050;SDS011;4068;42.158;24.732;2023-11-19T01:25:59;2.63;;;2.43;;
8050;SDS011;4068;42.158;24.732;2023-11-19T01:28:25;2.70;;;2.50;;
8050;SDS011;4068;42.158;24.732;2023-11-19T01:30:50;2.67;;;2.40;;
8050;SDS011;4068;42.158;24.732;2023-11-19T01:33:16;2.47;;;2.37;;
8050;SDS011;4068;42.158;24.732;2023-11-19T01:35:42;2.60;;;2.40;;
8050;SDS011;4068;42.158;24.732;2023-11-19T01:38:07;2.70;;;2.50;;
8050;SDS011;4068;42.158;24.732;2023-11-19T01:40:36;2.53;;;2.40;;
8050;SDS011;4068;42.158;24.732;2023-11-19T01:43:05;2.80;;;2.60;;
8050;SDS011;4068;42.158;24.732;2023-11-19T01:45:30;2.80;;;2.60;;
8050;SDS011;4068;42.158;24.732;2023-11-19T01:47:57;3.20;;;2.70;;
8050;SDS011;4068;42.158;24.732;2023-11-19T01:50:25;2.40;;;2.30;;
8050;SDS011;4068;42.158;24.732;2023-11-19T01:52:53;2.95;;;2.47;;
8050;SDS011;4068;42.158;24.732;2023-11-19T01:55:22;2.57;;;2.47;;
8050;SDS011;4068;42.158;24.732;2023-11-19T01:57:49;2.80;;;2.60;;
8050;SDS011;4068;42.158;24.732;2023-11-19T02:00:15;4.43;;;2.73;;
8050;SDS011;4068;42.158;24.732;2023-11-19T02:02:41;2.83;;;2.63;;
8050;SDS011;4068;42.158;24.732;2023-11-19T02:05:08;2.93;;;2.60;;
8050;SDS011;4068;42.158;24.732;2023-11-19T02:07:35;2.70;;;2.50;;
8050;SDS011;4068;42.158;24.732;2023-11-19T02:10:00;3.97;;;2.83;;
8050;SDS011;4068;42.158;24.732;2023-11-19T02:12:28;3.00;;;2.80;;
8050;SDS011;4068;42.158;24.732;2023-11-19T02:14:54;3.13;;;2.83;;
8050;SDS011;4068;42.158;24.732;2023-11-19T02:17:29;18.50;;;2.80;;
8050;SDS011;4068;42.158;24.732;2023-11-19T02:19:59;3.37;;;2.90;;
8050;SDS011;4068;42.158;24.732;2023-11-19T02:22:25;3.03;;;2.83;;
8050;SDS011;4068;42.158;24.732;2023-11-19T02:24:51;2.80;;;2.60;;
8050;SDS011;4068;42.158;24.732;2023-11-19T02:27:29;3.33;;;3.03;;
8050;SDS011;4068;42.158;24.732;2023-11-19T02:30:03;2.60;;;2.50;;
8050;SDS011;4068;42.158;24.732;2023-11-19T02:32:31;2.77;;;2.57;;
8050;SDS011;4068;42.158;24.732;2023-11-19T02:34:56;3.10;;;2.90;;
8050;SDS011;4068;42.158;24.732;2023-11-19T02:37:22;3.00;;;2.80;;
8050;SDS011;4068;42.158;24.732;2023-11-19T02:39:47;2.80;;;2.60;;
8050;SDS011;4068;42.158;24.732;2023-11-19T02:42:13;2.80;;;2.60;;
8050;SDS011;4068;42.158;24.732;2023-11-19T02:44:39;3.30;;;3.00;;
8050;SDS011;4068;42.158;24.732;2023-11-19T02:47:09;2.80;;;2.60;;
8050;SDS011;4068;42.158;24.732;2023-11-19T02:49:34;4.60;;;2.93;;
8050;SDS011;4068;42.158;24.732;2023-11-19T02:52:02;3.33;;;3.03;;
8050;SDS011;4068;42.158;24.732;2023-11-19T02:54:30;3.20;;;2.90;;
8050;SDS011;4068;42.158;24.732;2023-11-19T02:57:00;2.97;;;2.73;;
8050;SDS011;4068;42.158;24.732;2023-11-19T02:59:27;2.80;;;2.60;;
8050;SDS011;4068;42.158;24.732;2023-11-19T03:01:53;3.10;;;2.80;;
8050;SDS011;4068;42.158;24.732;2023-11-19T03:04:20;2.87;;;2.60;;
8050;SDS011;4068;42.158;24.732;2023-11-19T03:06:45;2.93;;;2.70;;
8050;SDS011;4068;42.158;24.732;2023-11-19T03:09:11;3.20;;;2.90;;
8050;SDS011;4068;42.158;24.732;2023-11-19T03:11:37;3.10;;;2.90;;
8050;SDS011;4068;42.158;24.732;2023-11-19T03:14:03;2.90;;;2.60;;
8050;SDS011;4068;42.158;24.732;2023-11-19T03:16:29;4.17;;;2.90;;
8050;SDS011;4068;42.158;24.732;2023-11-19T03:18:55;3.10;;;2.80;;
8050;SDS011;4068;42.158;24.732;2023-11-19T03:21:28;3.07;;;2.80;;
8050;SDS011;4068;42.158;24.732;2023-11-19T03:23:54;2.87;;;2.67;;
8050;SDS011;4068;42.158;24.732;2023-11-19T03:26:20;3.43;;;3.17;;
8050;SDS011;4068;42.158;24.732;2023-11-19T03:28:47;3.23;;;2.93;;
8050;SDS011;4068;42.158;24.732;2023-11-19T03:31:12;3.20;;;2.90;;
8050;SDS011;4068;42.158;24.732;2023-11-19T03:33:38;3.40;;;3.10;;
8050;SDS011;4068;42.158;24.732;2023-11-19T03:36:03;3.10;;;2.77;;
8050;SDS011;4068;42.158;24.732;2023-11-19T03:38:29;5.50;;;3.10;;
8050;SDS011;4068;42.158;24.732;2023-11-19T03:40:55;3.40;;;3.10;;
8050;SDS011;4068;42.158;24.732;2023-11-19T03:43:20;3.03;;;2.83;;
8050;SDS011;4068;42.158;24.732;2023-11-19T03:45:46;3.07;;;2.87;;
8050;SDS011;4068;42.158;24.732;2023-11-19T03:48:11;5.10;;;3.40;;
8050;SDS011;4068;42.158;24.732;2023-11-19T03:50:37;3.20;;;2.90;;
8050;SDS011;4068;42.158;24.732;2023-11-19T03:53:02;3.67;;;3.33;;
8050;SDS011;4068;42.158;24.732;2023-11-19T03:55:28;3.80;;;3.40;;
8050;SDS011;4068;42.158;24.732;2023-11-19T03:57:54;3.20;;;2.90;;
8050;SDS011;4068;42.158;24.732;2023-11-19T04:00:20;3.50;;;3.20;;
8050;SDS011;4068;42.158;24.732;2023-11-19T04:02:46;3.60;;;3.30;;
8050;SDS011;4068;42.158;24.732;2023-11-19T04:05:12;3.40;;;3.10;;
8050;SDS011;4068;42.158;24.732;2023-11-19T04:07:37;3.90;;;3.10;;
8050;SDS011;4068;42.158;24.732;2023-11-19T04:10:03;3.13;;;2.93;;
8050;SDS011;4068;42.158;24.732;2023-11-19T04:12:29;6.60;;;3.13;;
8050;SDS011;4068;42.158;24.732;2023-11-19T04:14:54;3.50;;;3.20;;
8050;SDS011;4068;42.158;24.732;2023-11-19T04:17:21;3.40;;;3.10;;
8050;SDS011;4068;42.158;24.732;2023-11-19T04:19:48;3.40;;;3.10;;
8050;SDS011;4068;42.158;24.732;2023-11-19T04:22:13;3.67;;;3.37;;
8050;SDS011;4068;42.158;24.732;2023-11-19T04:24:39;3.23;;;2.97;;
8050;SDS011;4068;42.158;24.732;2023-11-19T04:27:05;3.50;;;3.20;;
8050;SDS011;4068;42.158;24.732;2023-11-19T04:29:31;3.20;;;2.90;;
8050;SDS011;4068;42.158;24.732;2023-11-19T04:31:57;2.70;;;2.50;;
8050;SDS011;4068;42.158;24.732;2023-11-19T04:34:22;2.83;;;2.63;;
8050;SDS011;4068;42.158;24.732;2023-11-19T04:36:48;4.90;;;3.57;;
8050;SDS011;4068;42.158;24.732;2023-11-19T04:39:14;3.27;;;2.97;;
8050;SDS011;4068;42.158;24.732;2023-11-19T04:41:47;3.43;;;3.13;;
8050;SDS011;4068;42.158;24.732;2023-11-19T04:44:19;11.63;;;5.70;;
8050;SDS011;4068;42.158;24.732;2023-11-19T04:46:46;6.70;;;4.70;;
8050;SDS011;4068;42.158;24.732;2023-11-19T04:49:12;5.53;;;3.60;;
8050;SDS011;4068;42.158;24.732;2023-11-19T04:51:42;3.57;;;3.27;;
8050;SDS011;4068;42.158;24.732;2023-11-19T04:54:10;3.20;;;2.97;;
8050;SDS011;4068;42.158;24.732;2023-11-19T04:56:36;3.60;;;2.97;;
8050;SDS011;4068;42.158;24.732;2023-11-19T04:59:02;5.53;;;3.57;;
8050;SDS011;4068;42.158;24.732;2023-11-19T05:01:28;3.83;;;3.33;;
8050;SDS011;4068;42.158;24.732;2023-11-19T05:03:54;3.70;;;3.40;;
8050;SDS011;4068;42.158;24.732;2023-11-19T05:06:22;3.93;;;3.60;;
8050;SDS011;4068;42.158;24.732;2023-11-19T05:08:47;3.97;;;3.33;;
8050;SDS011;4068;42.158;24.732;2023-11-19T05:11:13;3.53;;;3.23;;
8050;SDS011;4068;42.158;24.732;2023-11-19T05:13:42;4.00;;;3.60;;
8050;SDS011;4068;42.158;24.732;2023-11-19T05:16:10;3.57;;;3.27;;
8050;SDS011;4068;42.158;24.732;2023-11-19T05:18:35;4.10;;;3.37;;
8050;SDS011;4068;42.158;24.732;2023-11-19T05:21:01;3.60;;;3.30;;
8050;SDS011;4068;42.158;24.732;2023-11-19T05:23:26;3.50;;;3.20;;
8050;SDS011;4068;42.158;24.732;2023-11-19T05:25:51;3.80;;;3.20;;
8050;SDS011;4068;42.158;24.732;2023-11-19T05:28:17;3.10;;;2.90;;
8050;SDS011;4068;42.158;24.732;2023-11-19T05:30:42;3.10;;;2.90;;
8050;SDS011;4068;42.158;24.732;2023-11-19T05:33:08;3.73;;;3.37;;
8050;SDS011;4068;42.158;24.732;2023-11-19T05:35:34;3.37;;;3.10;;
8050;SDS011;4068;42.158;24.732;2023-11-19T05:37:59;3.97;;;3.50;;
8050;SDS011;4068;42.158;24.732;2023-11-19T05:40:25;4.07;;;3.57;;
8050;SDS011;4068;42.158;24.732;2023-11-19T05:42:50;3.30;;;3.00;;
8050;SDS011;4068;42.158;24.732;2023-11-19T05:45:16;3.60;;;3.30;;
8050;SDS011;4068;42.158;24.732;2023-11-19T05:47:41;3.80;;;3.50;;
8050;SDS011;4068;42.158;24.732;2023-11-19T05:50:07;3.70;;;3.40;;
8050;SDS011;4068;42.158;24.732;2023-11-19T05:52:33;4.07;;;3.30;;
8050;SDS011;4068;42.158;24.732;2023-11-19T05:55:02;3.80;;;3.50;;
8050;SDS011;4068;42.158;24.732;2023-11-19T05:57:30;3.60;;;3.30;;
8050;SDS011;4068;42.158;24.732;2023-11-19T05:59:56;3.80;;;3.40;;
8050;SDS011;4068;42.158;24.732;2023-11-19T06:02:21;5.03;;;3.50;;
8050;SDS011;4068;42.158;24.732;2023-11-19T06:04:47;3.57;;;3.27;;
8050;SDS011;4068;42.158;24.732;2023-11-19T06:07:13;3.83;;;3.43;;
8050;SDS011;4068;42.158;24.732;2023-11-19T06:09:40;3.57;;;3.27;;
8050;SDS011;4068;42.158;24.732;2023-11-19T06:12:06;3.37;;;3.07;;
8050;SDS011;4068;42.158;24.732;2023-11-19T06:14:32;3.93;;;3.57;;
8050;SDS011;4068;42.158;24.732;2023-11-19T06:16:58;3.97;;;3.50;;
8050;SDS011;4068;42.158;24.732;2023-11-19T06:19:23;4.03;;;3.50;;
8050;SDS011;4068;42.158;24.732;2023-11-19T06:21:50;3.33;;;3.10;;
8050;SDS011;4068;42.158;24.732;2023-11-19T06:24:15;3.60;;;3.20;;
8050;SDS011;4068;42.158;24.732;2023-11-19T06:26:41;3.57;;;3.17;;
8050;SDS011;4068;42.158;24.732;2023-11-19T06:29:06;3.63;;;3.10;;
8050;SDS011;4068;42.158;24.732;2023-11-19T06:31:32;4.73;;;3.10;;
8050;SDS011;4068;42.158;24.732;2023-11-19T06:33:57;4.43;;;3.40;;
8050;SDS011;4068;42.158;24.732;2023-11-19T06:36:24;3.90;;;3.50;;
8050;SDS011;4068;42.158;24.732;2023-11-19T06:38:49;3.30;;;3.00;;
8050;SDS011;4068;42.158;24.732;2023-11-19T06:41:15;6.57;;;3.70;;
8050;SDS011;4068;42.158;24.732;2023-11-19T06:43:40;3.40;;;3.00;;
8050;SDS011;4068;42.158;24.732;2023-11-19T06:46:05;2.90;;;2.70;;
8050;SDS011;4068;42.158;24.732;2023-11-19T06:48:39;3.90;;;3.30;;
8050;SDS011;4068;42.158;24.732;2023-11-19T06:51:05;3.73;;;3.20;;
8050;SDS011;4068;42.158;24.732;2023-11-19T06:53:30;6.17;;;3.30;;
8050;SDS011;4068;42.158;24.732;2023-11-19T06:55:56;3.40;;;3.10;;
8050;SDS011;4068;42.158;24.732;2023-11-19T06:58:22;3.40;;;3.10;;
8050;SDS011;4068;42.158;24.732;2023-11-19T07:00:47;3.95;;;3.55;;
8050;SDS011;4068;42.158;24.732;2023-11-19T07:03:14;3.60;;;3.30;;
8050;SDS011;4068;42.158;24.732;2023-11-19T07:05:41;4.23;;;3.23;;
8050;SDS011;4068;42.158;24.732;2023-11-19T07:08:06;3.50;;;3.17;;
8050;SDS011;4068;42.158;24.732;2023-11-19T07:10:34;4.40;;;3.28;;
8050;SDS011;4068;42.158;24.732;2023-11-19T07:13:00;3.15;;;2.85;;
8050;SDS011;4068;42.158;24.732;2023-11-19T07:15:25;3.13;;;2.90;;
8050;SDS011;4068;42.158;24.732;2023-11-19T07:17:51;3.37;;;3.03;;
8050;SDS011;4068;42.158;24.732;2023-11-19T07:20:16;3.77;;;3.43;;
8050;SDS011;4068;42.158;24.732;2023-11-19T07:22:45;4.00;;;3.23;;
8050;SDS011;4068;42.158;24.732;2023-11-19T07:25:13;3.25;;;2.95;;
8050;SDS011;4068;42.158;24.732;2023-11-19T07:27:39;3.50;;;3.20;;
8050;SDS011;4068;42.158;24.732;2023-11-19T07:30:08;3.05;;;2.80;;
8050;SDS011;4068;42.158;24.732;2023-11-19T07:32:33;3.40;;;3.10;;
8050;SDS011;4068;42.158;24.732;2023-11-19T07:34:59;3.27;;;2.97;;
8050;SDS011;4068;42.158;24.732;2023-11-19T07:37:24;2.90;;;2.70;;
8050;SDS011;4068;42.158;24.732;2023-11-19T07:39:50;8.00;;;3.60;;
8050;SDS011;4068;42.158;24.732;2023-11-19T07:42:15;3.10;;;2.90;;
8050;SDS011;4068;42.158;24.732;2023-11-19T07:44:41;4.13;;;3.10;;
8050;SDS011;4068;42.158;24.732;2023-11-19T07:47:06;3.15;;;2.85;;
8050;SDS011;4068;42.158;24.732;2023-11-19T07:49:32;3.83;;;3.13;;
8050;SDS011;4068;42.158;24.732;2023-11-19T07:51:57;3.38;;;3.08;;
8050;SDS011;4068;42.158;24.732;2023-11-19T07:54:23;6.30;;;3.13;;
8050;SDS011;4068;42.158;24.732;2023-11-19T07:56:49;3.53;;;2.92;;
8050;SDS011;4068;42.158;24.732;2023-11-19T07:59:15;2.92;;;2.70;;
8050;SDS011;4068;42.158;24.732;2023-11-19T08:01:41;4.10;;;3.10;;
8050;SDS011;4068;42.158;24.732;2023-11-19T08:04:06;2.75;;;2.50;;
8050;SDS011;4068;42.158;24.732;2023-11-19T08:06:32;4.05;;;2.83;;
8050;SDS011;4068;42.158;24.732;2023-11-19T08:08:57;3.42;;;3.13;;
8050;SDS011;4068;42.158;24.732;2023-11-19T08:11:23;3.20;;;2.97;;
8050;SDS011;4068;42.158;24.732;2023-11-19T08:13:49;3.22;;;2.92;;
8050;SDS011;4068;42.158;24.732;2023-11-19T08:16:14;3.25;;;2.67;;
8050;SDS011;4068;42.158;24.732;2023-11-19T08:18:43;2.92;;;2.72;;
8050;SDS011;4068;42.158;24.732;2023-11-19T08:21:08;3.05;;;2.83;;
8050;SDS011;4068;42.158;24.732;2023-11-19T08:23:34;3.97;;;2.83;;
8050;SDS011;4068;42.158;24.732;2023-11-19T08:26:01;5.38;;;2.88;;
8050;SDS011;4068;42.158;24.732;2023-11-19T08:28:26;3.13;;;2.90;;
8050;SDS011;4068;42.158;24.732;2023-11-19T08:30:52;3.60;;;3.30;;
8050;SDS011;4068;42.158;24.732;2023-11-19T08:33:18;3.65;;;3.13;;
8050;SDS011;4068;42.158;24.732;2023-11-19T08:35:43;3.08;;;2.75;;
8050;SDS011;4068;42.158;24.732;2023-11-19T08:38:08;3.88;;;3.05;;
8050;SDS011;4068;42.158;24.732;2023-11-19T08:40:34;3.50;;;3.20;;
8050;SDS011;4068;42.158;24.732;2023-11-19T08:42:59;3.10;;;2.90;;
8050;SDS011;4068;42.158;24.732;2023-11-19T08:45:25;4.68;;;3.30;;
8050;SDS011;4068;42.158;24.732;2023-11-19T08:47:51;3.90;;;3.40;;
8050;SDS011;4068;42.158;24.732;2023-11-19T08:50:16;3.85;;;3.17;;
8050;SDS011;4068;42.158;24.732;2023-11-19T08:52:41;4.18;;;3.00;;
8050;SDS011;4068;42.158;24.732;2023-11-19T08:55:07;3.78;;;3.33;;
8050;SDS011;4068;42.158;24.732;2023-11-19T08:57:34;4.75;;;3.50;;
8050;SDS011;4068;42.158;24.732;2023-11-19T09:00:00;6.82;;;3.55;;
8050;SDS011;4068;42.158;24.732;2023-11-19T09:02:26;4.70;;;3.95;;
8050;SDS011;4068;42.158;24.732;2023-11-19T09:04:51;4.60;;;3.10;;
8050;SDS011;4068;42.158;24.732;2023-11-19T09:07:16;3.47;;;3.10;;
8050;SDS011;4068;42.158;24.732;2023-11-19T09:09:42;3.45;;;3.15;;
8050;SDS011;4068;42.158;24.732;2023-11-19T09:12:07;3.83;;;3.20;;
8050;SDS011;4068;42.158;24.732;2023-11-19T09:14:33;3.47;;;2.97;;
8050;SDS011;4068;42.158;24.732;2023-11-19T09:16:59;3.85;;;3.13;;
8050;SDS011;4068;42.158;24.732;2023-11-19T09:19:24;3.42;;;3.13;;
8050;SDS011;4068;42.158;24.732;2023-11-19T09:21:51;3.40;;;3.10;;
8050;SDS011;4068;42.158;24.732;2023-11-19T09:24:18;3.97;;;3.40;;
8050;SDS011;4068;42.158;24.732;2023-11-19T09:26:43;3.38;;;3.08;;
8050;SDS011;4068;42.158;24.732;2023-11-19T09:29:09;3.80;;;3.00;;
8050;SDS011;4068;42.158;24.732;2023-11-19T09:31:34;2.92;;;2.72;;
8050;SDS011;4068;42.158;24.732;2023-11-19T09:34:00;3.67;;;3.30;;
8050;SDS011;4068;42.158;24.732;2023-11-19T09:36:26;3.78;;;3.40;;
8050;SDS011;4068;42.158;24.732;2023-11-19T09:38:51;3.22;;;2.97;;
8050;SDS011;4068;42.158;24.732;2023-11-19T09:41:17;3.83;;;3.45;;
8050;SDS011;4068;42.158;24.732;2023-11-19T09:43:44;3.25;;;3.03;;
8050;SDS011;4068;42.158;24.732;2023-11-19T09:46:10;3.40;;;3.10;;
8050;SDS011;4068;42.158;24.732;2023-11-19T09:48:37;3.95;;;2.95;;
8050;SDS011;4068;42.158;24.732;2023-11-19T09:51:05;3.38;;;3.00;;
8050;SDS011;4068;42.158;24.732;2023-11-19T09:53:31;3.25;;;2.95;;
8050;SDS011;4068;42.158;24.732;2023-11-19T09:55:58;3.78;;;3.38;;
8050;SDS011;4068;42.158;24.732;2023-11-19T09:58:25;3.58;;;3.22;;
8050;SDS011;4068;42.158;24.732;2023-11-19T10:00:51;3.33;;;3.03;;
8050;SDS011;4068;42.158;24.732;2023-11-19T10:03:17;3.63;;;3.33;;
8050;SDS011;4068;42.158;24.732;2023-11-19T10:05:43;3.65;;;3.30;;
8050;SDS011;4068;42.158;24.732;2023-11-19T10:08:08;3.58;;;3.28;;
8050;SDS011;4068;42.158;24.732;2023-11-19T10:10:36;3.22;;;2.92;;
8050;SDS011;4068;42.158;24.732;2023-11-19T10:13:01;3.03;;;2.83;;
8050;SDS011;4068;42.158;24.732;2023-11-19T10:15:27;3.40;;;3.10;;
8050;SDS011;4068;42.158;24.732;2023-11-19T10:17:56;3.53;;;3.22;;
8050;SDS011;4068;42.158;24.732;2023-11-19T10:20:22;3.25;;;3.03;;
8050;SDS011;4068;42.158;24.732;2023-11-19T10:22:47;3.45;;;3.15;;
8050;SDS011;4068;42.158;24.732;2023-11-19T10:25:22;4.35;;;3.30;;
8050;SDS011;4068;42.158;24.732;2023-11-19T10:27:49;3.67;;;3.10;;
8050;SDS011;4068;42.158;24.732;2023-11-19T10:30:22;4.35;;;3.42;;
8050;SDS011;4068;42.158;24.732;2023-11-19T10:35:53;3.83;;;3.20;;
8050;SDS011;4068;42.158;24.732;2023-11-19T10:38:19;3.72;;;3.42;;
8050;SDS011;4068;42.158;24.732;2023-11-19T10:40:44;3.50;;;3.20;;
8050;SDS011;4068;42.158;24.732;2023-11-19T10:43:10;5.32;;;3.20;;
8050;SDS011;4068;42.158;24.732;2023-11-19T10:45:36;3.72;;;3.40;;
8050;SDS011;4068;42.158;24.732;2023-11-19T10:48:02;4.47;;;3.70;;
8050;SDS011;4068;42.158;24.732;2023-11-19T10:53:04;3.63;;;3.33;;
8050;SDS011;4068;42.158;24.732;2023-11-19T10:55:31;3.70;;;3.40;;
8050;SDS011;4068;42.158;24.732;2023-11-19T10:58:00;3.90;;;3.50;;
8050;SDS011;4068;42.158;24.732;2023-11-19T11:00:26;3.60;;;3.30;;
8050;SDS011;4068;42.158;24.732;2023-11-19T11:02:55;3.40;;;3.10;;
8050;SDS011;4068;42.158;24.732;2023-11-19T11:05:25;4.43;;;2.97;;
8050;SDS011;4068;42.158;24.732;2023-11-19T11:07:51;3.58;;;3.17;;
8050;SDS011;4068;42.158;24.732;2023-11-19T11:10:20;3.33;;;3.03;;
8050;SDS011;4068;42.158;24.732;2023-11-19T11:12:51;3.30;;;3.00;;
8050;SDS011;4068;42.158;24.732;2023-11-19T11:15:22;4.15;;;3.40;;
8050;SDS011;4068;42.158;24.732;2023-11-19T11:17:51;3.30;;;3.00;;
8050;SDS011;4068;42.158;24.732;2023-11-19T11:20:22;5.10;;;3.05;;
8050;SDS011;4068;42.158;24.732;2023-11-19T11:31:05;3.53;;;3.22;;
8050;SDS011;4068;42.158;24.732;2023-11-19T11:36:26;3.47;;;3.17;;
8050;SDS011;4068;42.158;24.732;2023-11-19T11:38:52;3.35;;;3.10;;
8050;SDS011;4068;42.158;24.732;2023-11-19T11:41:23;3.92;;;3.60;;
8050;SDS011;4068;42.158;24.732;2023-11-19T11:43:54;3.50;;;3.20;;
8050;SDS011;4068;42.158;24.732;2023-11-19T11:49:05;3.60;;;3.30;;
8050;SDS011;4068;42.158;24.732;2023-11-19T12:02:11;3.72;;;3.42;;
8050;SDS011;4068;42.158;24.732;2023-11-19T12:04:39;3.63;;;3.33;;
8050;SDS011;4068;42.158;24.732;2023-11-19T12:07:06;3.38;;;3.08;;
8050;SDS011;4068;42.158;24.732;2023-11-19T12:09:32;3.80;;;3.50;;
8050;SDS011;4068;42.158;24.732;2023-11-19T12:15:07;3.63;;;3.33;;
8050;SDS011;4068;42.158;24.732;2023-11-19T12:20:14;5.18;;;3.33;;
8050;SDS011;4068;42.158;24.732;2023-11-19T12:22:41;4.00;;;3.60;;
8050;SDS011;4068;42.158;24.732;2023-11-19T12:25:08;3.53;;;3.22;;
8050;SDS011;4068;42.158;24.732;2023-11-19T12:27:37;3.67;;;3.38;;
8050;SDS011;4068;42.158;24.732;2023-11-19T12:30:07;3.97;;;3.45;;
8050;SDS011;4068;42.158;24.732;2023-11-19T12:32:43;3.92;;;3.33;;
8050;SDS011;4068;42.158;24.732;2023-11-19T12:35:10;3.92;;;3.58;;
8050;SDS011;4068;42.158;24.732;2023-11-19T12:37:54;3.65;;;3.35;;
8050;SDS011;4068;42.158;24.732;2023-11-19T12:40:24;3.60;;;3.30;;
8050;SDS011;4068;42.158;24.732;2023-11-19T12:42:51;5.00;;;3.70;;
8050;SDS011;4068;42.158;24.732;2023-11-19T12:45:17;4.07;;;3.67;;
8050;SDS011;4068;42.158;24.732;2023-11-19T12:47:45;3.90;;;3.40;;
8050;SDS011;4068;42.158;24.732;2023-11-19T12:50:12;4.03;;;3.63;;
8050;SDS011;4068;42.158;24.732;2023-11-19T12:52:39;4.35;;;3.75;;
8050;SDS011;4068;42.158;24.732;2023-11-19T12:55:05;5.93;;;3.70;;
8050;SDS011;4068;42.158;24.732;2023-11-19T12:57:49;4.10;;;3.35;;
8050;SDS011;4068;42.158;24.732;2023-11-19T13:00:18;5.15;;;3.58;;
8050;SDS011;4068;42.158;24.732;2023-11-19T13:02:48;5.45;;;3.70;;
8050;SDS011;4068;42.158;24.732;2023-11-19T13:05:25;4.88;;;3.92;;
8050;SDS011;4068;42.158;24.732;2023-11-19T13:08:06;6.72;;;3.80;;
8050;SDS011;4068;42.158;24.732;2023-11-19T13:10:34;4.28;;;3.45;;
8050;SDS011;4068;42.158;24.732;2023-11-19T13:13:15;3.67;;;3.38;;
8050;SDS011;4068;42.158;24.732;2023-11-19T13:15:40;3.95;;;3.55;;
8050;SDS011;4068;42.158;24.732;2023-11-19T13:18:06;4.35;;;3.38;;
8050;SDS011;4068;42.158;24.732;2023-11-19T13:20:31;4.05;;;3.65;;
8050;SDS011;4068;42.158;24.732;2023-11-19T13:22:58;4.13;;;3.65;;
8050;SDS011;4068;42.158;24.732;2023-11-19T13:25:27;4.72;;;3.83;;
8050;SDS011;4068;42.158;24.732;2023-11-19T13:27:53;4.85;;;3.55;;
8050;SDS011;4068;42.158;24.732;2023-11-19T13:30:20;3.80;;;3.45;;
8050;SDS011;4068;42.158;24.732;2023-11-19T13:32:47;6.03;;;4.18;;
8050;SDS011;4068;42.158;24.732;2023-11-19T13:35:13;4.22;;;3.80;;
8050;SDS011;4068;42.158;24.732;2023-11-19T13:37:39;7.85;;;4.13;;
8050;SDS011;4068;42.158;24.732;2023-11-19T13:40:08;4.03;;;3.65;;
8050;SDS011;4068;42.158;24.732;2023-11-19T13:42:37;8.45;;;6.07;;
8050;SDS011;4068;42.158;24.732;2023-11-19T13:45:06;5.32;;;3.97;;
8050;SDS011;4068;42.158;24.732;2023-11-19T13:47:37;3.80;;;3.50;;
8050;SDS011;4068;42.158;24.732;2023-11-19T13:52:38;4.18;;;3.72;;
8050;SDS011;4068;42.158;24.732;2023-11-19T13:55:05;4.68;;;4.18;;
8050;SDS011;4068;42.158;24.732;2023-11-19T13:57:32;7.70;;;3.90;;
8050;SDS011;4068;42.158;24.732;2023-11-19T13:59:57;6.55;;;4.38;;
8050;SDS011;4068;42.158;24.732;2023-11-19T14:02:23;5.20;;;3.78;;
8050;SDS011;4068;42.158;24.732;2023-11-19T14:04:48;6.03;;;4.57;;
8050;SDS011;4068;42.158;24.732;2023-11-19T14:07:13;7.50;;;4.55;;
8050;SDS011;4068;42.158;24.732;2023-11-19T14:09:41;6.70;;;4.47;;
8050;SDS011;4068;42.158;24.732;2023-11-19T14:12:07;6.10;;;3.83;;
8050;SDS011;4068;42.158;24.732;2023-11-19T14:14:34;5.15;;;3.88;;
8050;SDS011;4068;42.158;24.732;2023-11-19T14:17:01;9.05;;;4.07;;
8050;SDS011;4068;42.158;24.732;2023-11-19T14:19:28;3.88;;;3.58;;
8050;SDS011;4068;42.158;24.732;2023-11-19T14:21:53;4.70;;;3.70;;
8050;SDS011;4068;42.158;24.732;2023-11-19T14:24:19;7.00;;;3.80;;
8050;SDS011;4068;42.158;24.732;2023-11-19T14:26:45;5.00;;;4.10;;
8050;SDS011;4068;42.158;24.732;2023-11-19T14:29:12;5.47;;;4.50;;
8050;SDS011;4068;42.158;24.732;2023-11-19T14:31:37;6.18;;;4.22;;
8050;SDS011;4068;42.158;24.732;2023-11-19T14:34:04;4.82;;;4.05;;
8050;SDS011;4068;42.158;24.732;2023-11-19T14:36:30;8.10;;;4.30;;
8050;SDS011;4068;42.158;24.732;2023-11-19T14:38:55;4.55;;;3.97;;
8050;SDS011;4068;42.158;24.732;2023-11-19T14:41:22;4.13;;;3.72;;
8050;SDS011;4068;42.158;24.732;2023-11-19T14:43:48;4.15;;;3.75;;
8050;SDS011;4068;42.158;24.732;2023-11-19T14:46:13;5.10;;;4.22;;
8050;SDS011;4068;42.158;24.732;2023-11-19T14:48:39;10.35;;;4.20;;
8050;SDS011;4068;42.158;24.732;2023-11-19T14:51:04;4.10;;;3.70;;
8050;SDS011;4068;42.158;24.732;2023-11-19T14:53:30;5.75;;;4.35;;
8050;SDS011;4068;42.158;24.732;2023-11-19T14:55:55;8.23;;;4.28;;
8050;SDS011;4068;42.158;24.732;2023-11-19T14:58:21;6.40;;;3.63;;
8050;SDS011;4068;42.158;24.732;2023-11-19T15:00:47;4.82;;;4.22;;
8050;SDS011;4068;42.158;24.732;2023-11-19T15:03:13;4.25;;;3.85;;
8050;SDS011;4068;42.158;24.732;2023-11-19T15:05:38;5.85;;;4.25;;
8050;SDS011;4068;42.158;24.732;2023-11-19T15:08:04;5.40;;;4.25;;
8050;SDS011;4068;42.158;24.732;2023-11-19T15:10:29;4.85;;;3.80;;
8050;SDS011;4068;42.158;24.732;2023-11-19T15:12:55;7.40;;;4.68;;
8050;SDS011;4068;42.158;24.732;2023-11-19T15:15:20;4.20;;;3.80;;
8050;SDS011;4068;42.158;24.732;2023-11-19T15:17:47;5.00;;;4.07;;
8050;SDS011;4068;42.158;24.732;2023-11-19T15:20:12;11.73;;;4.25;;
8050;SDS011;4068;42.158;24.732;2023-11-19T15:22:40;4.10;;;3.70;;
8050;SDS011;4068;42.158;24.732;2023-11-19T15:25:06;7.73;;;3.90;;
8050;SDS011;4068;42.158;24.732;2023-11-19T15:27:35;4.23;;;3.83;;
8050;SDS011;4068;42.158;24.732;2023-11-19T15:30:01;5.10;;;4.27;;
8050;SDS011;4068;42.158;24.732;2023-11-19T15:32:28;4.47;;;3.75;;
8050;SDS011;4068;42.158;24.732;2023-11-19T15:34:56;5.87;;;4.67;;